Weyburn, Canada
Current Conditions -  °F | °C
As of 10:00 PM on Thursday 30 Oct 2014 (Local Time) from CYEN Reporting Station
Clear Clear  
Wind Chill: 13°   Ceiling: Unl
Heat Index: 21°   Visibility: 15mi
Dew Point: 19°   Wind: 7mph
Humidity: 93%   Direction: 140°SE
Pressure: 30.53"   Gusts: NA
Location:  49.67°N, 103.86°W
Report Text: CYEN 310400Z 14006KT 15SM SKC M06/M07 A3053 RMK FROIN SLP372
Loading
Personal Weather Stations






























Interactive Weather Map
Tropical Storm Tracking
New forecast layout! Learn more

10-Day Weather Forecast

Advertisements
Track Severe Weather on mobile